Time;durP1;ratioP1;P1;durP2;ratioP2;P2;SDS_P1;SDS_P2;PMS_P1;PMS_P2;Temp;Humidity;BMP_temperature;BMP_pressure;BME280_temperature;BME280_humidity;BME280_pressure;Samples;Min_cycle;Max_cycle;Signal;HPM_P1;HPM_P2
2022/04/11 00:01:30;;;;;;;;;;;6.90;99.90;;;;;;5080265;28;19917;-84
2022/04/11 00:03:55;;;;;;;;;;;6.80;99.90;;;;;;5085139;28;19920;-84
2022/04/11 00:06:21;;;;;;;;;;;6.80;99.90;;;;;;5087360;28;20419;-84
2022/04/11 00:08:46;;;;;;;;;;;6.70;99.90;;;;;;5086712;28;20018;-84
2022/04/11 00:11:12;;;;;;;;;;;6.80;99.90;;;;;;5084085;28;19916;-84
2022/04/11 00:13:37;;;;;;;;;;;6.70;99.90;;;;;;5084384;28;19938;-84
2022/04/11 00:16:03;;;;;;;;;;;6.70;99.90;;;;;;5088135;28;19919;-83
2022/04/11 00:18:29;;;;;;;;;;;6.80;99.90;;;;;;5083016;28;19920;-84
2022/04/11 00:20:56;;;;;;;;;;;6.80;99.90;;;;;;5083318;28;20003;-82
2022/04/11 00:23:25;;;;;;;;;;;6.80;99.90;;;;;;5084198;28;19957;-84
2022/04/11 00:25:50;;;;;;;;;;;6.80;99.90;;;;;;5081050;28;20106;-83
2022/04/11 00:28:16;;;;;;;;;;;6.80;99.90;;;;;;5084722;28;19913;-82
2022/04/11 00:30:41;;;;;;;;;;;6.70;99.90;;;;;;5082124;28;19916;-83
2022/04/11 00:33:07;;;;;;;;;;;6.60;99.90;;;;;;5082828;28;19921;-84
2022/04/11 00:35:32;;;;;;;;;;;6.60;99.90;;;;;;5081587;28;20342;-84
2022/04/11 00:38:00;;;;;;;;;;;6.60;99.90;;;;;;5081850;28;19984;-83
2022/04/11 00:40:25;;;;;;;;;;;6.50;99.90;;;;;;5086546;28;19913;-83
2022/04/11 00:42:51;;;;;;;;;;;6.50;99.90;;;;;;5086040;28;19961;-83
2022/04/11 00:45:16;;;;;;;;;;;6.40;99.90;;;;;;5082542;28;19920;-83
2022/04/11 00:47:42;;;;;;;;;;;6.40;99.90;;;;;;5080526;28;19912;-83
2022/04/11 00:50:09;;;;;;;;;;;6.40;99.90;;;;;;5084313;28;19935;-83
2022/04/11 00:52:39;;;;;;;;;;;6.40;99.90;;;;;;5082259;28;20388;-83
2022/04/11 00:55:07;;;;;;;;;;;6.40;99.90;;;;;;5085152;28;19912;-84
2022/04/11 00:57:33;;;;;;;;;;;6.40;99.90;;;;;;5085893;28;19980;-83
2022/04/11 00:59:59;;;;;;;;;;;6.50;99.90;;;;;;5082279;28;19952;-83
2022/04/11 01:02:27;;;;;;;;;;;6.50;99.90;;;;;;5086782;28;20326;-83
2022/04/11 01:04:53;;;;;;;;;;;6.50;99.90;;;;;;5087634;28;19921;-84
2022/04/11 01:07:21;;;;;;;;;;;6.50;99.90;;;;;;5082486;28;20003;-84
2022/04/11 01:09:46;;;;;;;;;;;6.40;99.90;;;;;;5082892;28;20016;-83
2022/04/11 01:12:14;;;;;;;;;;;6.30;99.90;;;;;;5083348;28;19944;-85
2022/04/11 01:14:40;;;;;;;;;;;6.30;99.90;;;;;;5084099;28;19913;-84
2022/04/11 01:17:05;;;;;;;;;;;6.30;99.90;;;;;;5079197;28;20486;-83
2022/04/11 01:19:31;;;;;;;;;;;6.30;99.90;;;;;;5081307;28;20398;-83
2022/04/11 01:21:56;;;;;;;;;;;6.20;99.90;;;;;;5080760;28;20399;-84
2022/04/11 01:24:21;;;;;;;;;;;6.30;99.90;;;;;;5088061;28;19916;-84
2022/04/11 01:26:48;;;;;;;;;;;6.20;99.90;;;;;;5086267;28;19916;-84
2022/04/11 01:29:17;;;;;;;;;;;6.20;99.90;;;;;;5083791;28;20679;-84
2022/04/11 01:31:45;;;;;;;;;;;6.10;99.90;;;;;;5086204;28;19919;-83
2022/04/11 01:34:10;;;;;;;;;;;6.10;99.90;;;;;;5082668;28;19912;-84
2022/04/11 01:36:36;;;;;;;;;;;6.10;99.90;;;;;;5085200;28;19912;-84
2022/04/11 01:39:01;;;;;;;;;;;6.10;99.90;;;;;;5084395;28;19946;-84
2022/04/11 01:41:27;;;;;;;;;;;6.00;99.90;;;;;;5082680;28;19921;-83
2022/04/11 01:43:53;;;;;;;;;;;6.00;99.90;;;;;;5085725;28;19935;-84
2022/04/11 01:46:21;;;;;;;;;;;6.00;99.90;;;;;;5094017;28;19912;-82
2022/04/11 01:48:46;;;;;;;;;;;6.00;99.90;;;;;;5090170;28;19919;-84
2022/04/11 01:51:13;;;;;;;;;;;5.90;99.90;;;;;;5086926;28;20019;-84
2022/04/11 01:53:39;;;;;;;;;;;5.90;99.90;;;;;;5089089;28;20432;-84
2022/04/11 01:56:04;;;;;;;;;;;5.90;99.90;;;;;;5082038;28;19965;-83
2022/04/11 01:58:30;;;;;;;;;;;5.90;99.90;;;;;;5082576;28;19919;-83
2022/04/11 02:00:59;;;;;;;;;;;5.80;99.90;;;;;;5084051;28;19922;-84
2022/04/11 02:03:27;;;;;;;;;;;5.80;99.90;;;;;;5090554;28;19923;-83
2022/04/11 02:05:53;;;;;;;;;;;5.80;99.90;;;;;;5096786;28;19919;-84
2022/04/11 02:08:19;;;;;;;;;;;5.80;99.90;;;;;;5084370;28;20334;-83
2022/04/11 02:10:47;;;;;;;;;;;5.70;99.90;;;;;;5087778;28;19912;-83
2022/04/11 02:13:12;;;;;;;;;;;5.70;99.90;;;;;;5081798;28;19931;-83
2022/04/11 02:15:38;;;;;;;;;;;5.70;99.90;;;;;;5083649;28;19913;-83
2022/04/11 02:18:04;;;;;;;;;;;5.70;99.90;;;;;;5082525;28;20429;-84
2022/04/11 02:20:30;;;;;;;;;;;5.70;99.90;;;;;;5082439;28;19913;-84
2022/04/11 02:22:56;;;;;;;;;;;5.80;99.90;;;;;;5083874;28;19921;-84
2022/04/11 02:25:23;;;;;;;;;;;5.80;99.90;;;;;;5082800;28;19920;-83
2022/04/11 02:27:48;;;;;;;;;;;5.80;99.90;;;;;;5082667;28;20386;-83
2022/04/11 02:30:15;;;;;;;;;;;5.80;99.90;;;;;;5086422;28;19921;-83
2022/04/11 02:32:41;;;;;;;;;;;5.70;99.90;;;;;;5085498;28;19912;-83
2022/04/11 02:35:07;;;;;;;;;;;5.70;99.90;;;;;;5083329;28;19933;-83
2022/04/11 02:37:33;;;;;;;;;;;5.70;99.90;;;;;;5086854;28;19969;-83
2022/04/11 02:39:58;;;;;;;;;;;5.70;99.90;;;;;;5084833;28;19916;-83
2022/04/11 02:42:27;;;;;;;;;;;5.80;99.90;;;;;;5085645;28;19930;-84
2022/04/11 02:44:53;;;;;;;;;;;5.70;99.90;;;;;;5084346;28;20111;-83
2022/04/11 02:47:19;;;;;;;;;;;5.80;99.90;;;;;;5081646;28;19931;-84
2022/04/11 02:49:47;;;;;;;;;;;5.70;99.90;;;;;;5082720;28;19912;-83
2022/04/11 02:52:13;;;;;;;;;;;5.70;99.90;;;;;;5083613;28;20007;-83
2022/04/11 02:54:39;;;;;;;;;;;5.80;99.90;;;;;;5082711;28;20377;-83
2022/04/11 02:57:05;;;;;;;;;;;5.80;99.90;;;;;;5083786;28;19939;-83
2022/04/11 02:59:32;;;;;;;;;;;5.80;99.90;;;;;;5086147;28;19912;-83
2022/04/11 03:02:00;;;;;;;;;;;5.70;99.90;;;;;;5085320;28;19931;-84
2022/04/11 03:04:26;;;;;;;;;;;5.70;99.90;;;;;;5087141;28;19917;-83
2022/04/11 03:06:53;;;;;;;;;;;5.60;99.90;;;;;;5090828;28;19919;-85
2022/04/11 03:09:21;;;;;;;;;;;5.60;99.90;;;;;;5088424;28;19916;-84
2022/04/11 03:11:47;;;;;;;;;;;5.50;99.90;;;;;;5091055;28;19973;-84
2022/04/11 03:14:12;;;;;;;;;;;5.50;99.90;;;;;;5087609;28;19912;-84
2022/04/11 03:16:38;;;;;;;;;;;5.50;99.90;;;;;;5084703;28;20015;-82
2022/04/11 03:19:03;;;;;;;;;;;5.50;99.90;;;;;;5086946;28;19916;-84
2022/04/11 03:21:28;;;;;;;;;;;5.50;99.90;;;;;;5088856;28;20368;-83
2022/04/11 03:23:54;;;;;;;;;;;5.60;99.90;;;;;;5087757;28;20021;-82
2022/04/11 03:26:20;;;;;;;;;;;5.60;99.90;;;;;;5087871;28;19927;-82
2022/04/11 03:28:45;;;;;;;;;;;5.50;99.90;;;;;;5089864;28;19912;-83
2022/04/11 03:31:11;;;;;;;;;;;5.50;99.90;;;;;;5085899;28;19924;-82
2022/04/11 03:33:36;;;;;;;;;;;5.50;99.90;;;;;;5085030;28;19955;-83
2022/04/11 03:36:02;;;;;;;;;;;5.40;99.90;;;;;;5086580;28;19920;-82
2022/04/11 03:38:27;;;;;;;;;;;5.40;99.90;;;;;;5085153;28;20003;-84
2022/04/11 03:40:53;;;;;;;;;;;5.30;99.90;;;;;;5085206;28;20294;-83
2022/04/11 03:43:18;;;;;;;;;;;5.30;99.90;;;;;;5086445;28;19924;-85
2022/04/11 03:45:44;;;;;;;;;;;5.30;99.90;;;;;;5086097;28;19916;-83
2022/04/11 03:48:09;;;;;;;;;;;5.30;99.90;;;;;;5084185;28;19919;-84
2022/04/11 03:50:37;;;;;;;;;;;5.30;99.90;;;;;;5087132;28;19918;-83
2022/04/11 03:53:03;;;;;;;;;;;5.20;99.90;;;;;;5088228;28;20392;-84
2022/04/11 03:55:28;;;;;;;;;;;5.10;99.90;;;;;;5085537;28;19979;-83
2022/04/11 03:57:57;;;;;;;;;;;5.10;99.90;;;;;;5087075;28;19924;-83
2022/04/11 04:00:23;;;;;;;;;;;5.10;99.90;;;;;;5085837;28;19917;-83
2022/04/11 04:02:48;;;;;;;;;;;5.00;99.90;;;;;;5086110;28;20366;-84
2022/04/11 04:05:14;;;;;;;;;;;5.00;99.90;;;;;;5098978;23;20019;-82
2022/04/11 04:07:42;;;;;;;;;;;4.90;99.90;;;;;;5055103;28;19928;-82
2022/04/11 04:10:07;;;;;;;;;;;4.80;99.90;;;;;;5074194;28;19920;-84
2022/04/11 04:12:33;;;;;;;;;;;4.80;99.90;;;;;;5059982;28;19920;-85
2022/04/11 04:14:58;;;;;;;;;;;4.70;99.90;;;;;;5071587;28;19912;-85
2022/04/11 04:17:26;;;;;;;;;;;4.70;99.90;;;;;;5074132;28;19919;-85
2022/04/11 04:19:55;;;;;;;;;;;4.60;99.90;;;;;;5070068;28;19920;-84
2022/04/11 04:22:20;;;;;;;;;;;4.60;99.90;;;;;;5059149;28;19919;-84
2022/04/11 04:24:46;;;;;;;;;;;4.50;99.90;;;;;;5056304;28;19921;-84
2022/04/11 04:27:11;;;;;;;;;;;4.40;99.90;;;;;;5054615;28;19913;-84
2022/04/11 04:29:37;;;;;;;;;;;4.40;99.90;;;;;;5054614;28;19955;-84
2022/04/11 04:32:02;;;;;;;;;;;4.40;99.90;;;;;;5051440;28;19917;-84
2022/04/11 04:34:31;;;;;;;;;;;4.30;99.90;;;;;;5077705;28;19955;-85
2022/04/11 04:36:58;;;;;;;;;;;4.30;99.90;;;;;;5054867;28;20292;-85
2022/04/11 04:39:24;;;;;;;;;;;4.30;99.90;;;;;;5073981;28;20411;-84
2022/04/11 04:41:57;;;;;;;;;;;4.30;99.90;;;;;;5058458;28;19912;-85
2022/04/11 04:44:22;;;;;;;;;;;4.30;99.90;;;;;;5056787;28;19935;-84
2022/04/11 04:46:48;;;;;;;;;;;4.30;99.90;;;;;;5061188;28;19912;-84
2022/04/11 04:49:13;;;;;;;;;;;4.30;99.90;;;;;;5054972;28;19912;-85
2022/04/11 04:51:39;;;;;;;;;;;4.30;99.90;;;;;;5057826;28;19921;-85
2022/04/11 04:54:07;;;;;;;;;;;4.30;99.90;;;;;;5055137;28;20403;-85
2022/04/11 04:56:36;;;;;;;;;;;4.30;99.90;;;;;;5055649;28;19961;-84
2022/04/11 04:59:03;;;;;;;;;;;4.40;99.90;;;;;;5053884;28;19935;-84
2022/04/11 05:01:37;;;;;;;;;;;4.40;99.90;;;;;;5056825;28;20384;-85
2022/04/11 05:04:02;;;;;;;;;;;4.40;99.90;;;;;;5055137;28;19925;-85
2022/04/11 05:06:33;;;;;;;;;;;4.40;99.90;;;;;;5055124;28;19925;-84
2022/04/11 05:09:06;;;;;;;;;;;4.40;99.90;;;;;;5059355;28;20037;-84
2022/04/11 05:11:32;;;;;;;;;;;4.40;99.90;;;;;;5068503;28;19920;-85
2022/04/11 05:14:00;;;;;;;;;;;4.40;99.90;;;;;;5059770;28;19913;-84
2022/04/11 05:16:25;;;;;;;;;;;4.50;99.90;;;;;;5056576;28;20384;-85
2022/04/11 05:18:51;;;;;;;;;;;4.50;99.90;;;;;;5057783;28;19957;-85
2022/04/11 05:21:26;;;;;;;;;;;4.50;99.90;;;;;;5051936;28;19920;-85
2022/04/11 05:23:54;;;;;;;;;;;4.50;99.90;;;;;;5052022;28;19917;-85
2022/04/11 05:26:20;;;;;;;;;;;4.50;99.90;;;;;;5057988;28;19921;-84
2022/04/11 05:29:09;;;;;;;;;;;4.60;99.90;;;;;;5057863;28;19966;-85
2022/04/11 05:31:36;;;;;;;;;;;4.70;99.90;;;;;;5076382;28;19913;-85
2022/04/11 05:34:05;;;;;;;;;;;4.80;99.90;;;;;;5068996;28;19966;-85
2022/04/11 05:36:30;;;;;;;;;;;4.80;99.90;;;;;;5056046;28;19981;-85
2022/04/11 05:38:59;;;;;;;;;;;5.10;99.90;;;;;;5072989;28;20372;-83
2022/04/11 05:41:24;;;;;;;;;;;5.70;99.90;;;;;;5059836;28;19980;-84
2022/04/11 05:43:50;;;;;;;;;;;9.20;99.90;;;;;;5049405;28;20001;-84
2022/04/11 05:46:15;;;;;;;;;;;13.30;99.90;;;;;;5074355;28;19912;-85
2022/04/11 05:48:42;;;;;;;;;;;16.30;99.90;;;;;;5079628;28;19935;-85
2022/04/11 05:51:08;;;;;;;;;;;19.10;99.90;;;;;;5059091;28;19912;-82
2022/04/11 05:53:33;;;;;;;;;;;21.00;99.90;;;;;;5078391;28;20415;-83
2022/04/11 05:55:59;;;;;;;;;;;22.60;99.90;;;;;;5077404;28;19927;-83
2022/04/11 05:58:24;;;;;;;;;;;23.80;99.90;;;;;;5080742;28;19912;-84
2022/04/11 06:00:50;;;;;;;;;;;25.40;99.90;;;;;;5073698;28;20364;-84
2022/04/11 06:03:15;;;;;;;;;;;26.70;99.90;;;;;;5074972;28;19917;-84
2022/04/11 06:05:41;;;;;;;;;;;27.10;99.90;;;;;;5058872;28;19930;-84
2022/04/11 06:08:06;;;;;;;;;;;28.60;99.90;;;;;;5053270;28;19913;-83
2022/04/11 06:10:32;;;;;;;;;;;29.60;99.90;;;;;;5072600;28;19921;-82
2022/04/11 06:12:58;;;;;;;;;;;30.10;99.90;;;;;;5072780;28;20004;-84
2022/04/11 06:15:23;;;;;;;;;;;30.10;99.90;;;;;;5069804;28;20376;-83
2022/04/11 06:17:48;;;;;;;;;;;30.50;99.90;;;;;;5071557;28;19920;-82
2022/04/11 06:20:14;;;;;;;;;;;31.10;99.90;;;;;;5068849;28;19913;-83
2022/04/11 06:22:40;;;;;;;;;;;30.90;99.90;;;;;;5070636;28;19920;-83
2022/04/11 06:25:08;;;;;;;;;;;31.00;99.90;;;;;;5049925;28;19979;-83
2022/04/11 06:27:34;;;;;;;;;;;30.20;99.90;;;;;;5069863;28;20292;-84
2022/04/11 06:29:59;;;;;;;;;;;29.80;99.90;;;;;;5067583;28;19924;-83
2022/04/11 06:32:28;;;;;;;;;;;30.90;99.90;;;;;;5055499;28;19913;-83
2022/04/11 06:34:54;;;;;;;;;;;30.10;99.90;;;;;;5069585;28;19916;-82
2022/04/11 06:37:21;;;;;;;;;;;30.90;99.90;;;;;;5058411;28;20007;-83
2022/04/11 06:39:46;;;;;;;;;;;30.60;99.90;;;;;;5058296;28;19920;-83
2022/04/11 06:42:13;;;;;;;;;;;29.80;99.90;;;;;;5072138;28;19952;-83
2022/04/11 06:44:41;;;;;;;;;;;30.90;99.90;;;;;;5059074;28;19951;-83
2022/04/11 06:47:08;;;;;;;;;;;31.40;99.90;;;;;;5070394;28;19912;-82
2022/04/11 06:49:37;;;;;;;;;;;32.60;99.90;;;;;;5078991;28;19913;-83
2022/04/11 06:52:03;;;;;;;;;;;31.70;99.90;;;;;;5073162;28;19981;-83
2022/04/11 06:54:30;;;;;;;;;;;32.00;99.90;;;;;;5075751;28;19972;-83
2022/04/11 06:56:56;;;;;;;;;;;32.60;99.90;;;;;;5057569;28;19966;-83
2022/04/11 06:59:22;;;;;;;;;;;31.60;99.90;;;;;;5075695;28;20368;-84
2022/04/11 07:01:48;;;;;;;;;;;31.20;99.90;;;;;;5054976;28;20252;-83
2022/04/11 07:04:13;;;;;;;;;;;30.50;99.90;;;;;;5069256;28;19916;-83
2022/04/11 07:06:39;;;;;;;;;;;31.20;99.90;;;;;;5060416;28;19924;-83
2022/04/11 07:09:04;;;;;;;;;;;31.50;99.90;;;;;;5078734;28;19918;-82
2022/04/11 07:11:33;;;;;;;;;;;30.50;99.90;;;;;;5071438;28;19999;-83
2022/04/11 07:13:58;;;;;;;;;;;31.10;99.90;;;;;;5054131;28;19917;-84
2022/04/11 07:16:24;;;;;;;;;;;31.50;99.90;;;;;;5059569;28;19913;-83
2022/04/11 07:18:50;;;;;;;;;;;31.70;99.90;;;;;;5074425;28;20598;-82
2022/04/11 07:21:15;;;;;;;;;;;31.10;99.90;;;;;;5060961;28;19912;-82
2022/04/11 07:23:41;;;;;;;;;;;32.10;99.90;;;;;;5073303;28;19919;-83
2022/04/11 07:26:06;;;;;;;;;;;33.10;99.90;;;;;;5076437;28;19916;-82
2022/04/11 07:28:32;;;;;;;;;;;33.10;99.90;;;;;;5060960;28;19921;-82
2022/04/11 07:30:58;;;;;;;;;;;33.40;99.90;;;;;;5059323;28;19970;-81
2022/04/11 07:33:23;;;;;;;;;;;33.90;99.90;;;;;;5052995;28;19921;-82
2022/04/11 07:35:48;;;;;;;;;;;33.10;99.90;;;;;;5074461;28;19985;-83
2022/04/11 07:38:14;;;;;;;;;;;34.10;99.90;;;;;;5058953;28;19916;-82
2022/04/11 07:40:39;;;;;;;;;;;34.10;99.90;;;;;;5056045;28;19918;-82
2022/04/11 07:43:05;;;;;;;;;;;33.90;99.90;;;;;;5059036;28;20012;-82
2022/04/11 07:45:30;;;;;;;;;;;35.80;99.90;;;;;;5053996;28;19916;-83
2022/04/11 07:47:56;;;;;;;;;;;36.40;99.90;;;;;;5058077;28;20054;-81
2022/04/11 07:50:21;;;;;;;;;;;35.20;99.90;;;;;;5072265;28;19913;-82
2022/04/11 07:52:47;;;;;;;;;;;35.00;99.90;;;;;;5075289;28;19919;-81
2022/04/11 07:55:15;;;;;;;;;;;33.60;99.90;;;;;;5054470;28;19918;-82
2022/04/11 07:57:40;;;;;;;;;;;34.30;99.90;;;;;;5076136;28;20465;-82
2022/04/11 08:00:06;;;;;;;;;;;34.30;99.90;;;;;;5072269;28;19939;-82
2022/04/11 08:02:32;;;;;;;;;;;34.50;99.90;;;;;;5059899;28;19913;-83
2022/04/11 08:05:00;;;;;;;;;;;34.70;99.90;;;;;;5060803;28;19916;-82
2022/04/11 08:07:26;;;;;;;;;;;34.30;99.90;;;;;;5058475;28;19924;-82
2022/04/11 08:09:51;;;;;;;;;;;33.70;99.90;;;;;;5050462;28;19928;-82
2022/04/11 08:12:17;;;;;;;;;;;33.80;99.90;;;;;;5052503;28;19913;-82
2022/04/11 08:14:42;;;;;;;;;;;32.40;99.90;;;;;;5054599;28;19913;-81
2022/04/11 08:17:08;;;;;;;;;;;31.90;99.90;;;;;;5069975;28;19920;-81
2022/04/11 08:19:33;;;;;;;;;;;32.20;99.90;;;;;;5052335;28;19928;-80
2022/04/11 08:21:59;;;;;;;;;;;32.10;99.90;;;;;;5066050;28;19917;-81
2022/04/11 08:24:24;;;;;;;;;;;32.50;99.90;;;;;;5067951;28;20346;-80
2022/04/11 08:26:50;;;;;;;;;;;33.00;99.90;;;;;;5067319;28;19912;-79
2022/04/11 08:29:17;;;;;;;;;;;31.40;99.90;;;;;;5048420;28;20016;-79
2022/04/11 08:31:43;;;;;;;;;;;31.80;99.90;;;;;;5067791;28;20324;-80
2022/04/11 08:34:08;;;;;;;;;;;33.00;99.90;;;;;;5049911;28;19951;-80
2022/04/11 08:36:34;;;;;;;;;;;32.10;99.90;;;;;;5069954;28;19955;-80
2022/04/11 08:38:59;;;;;;;;;;;32.10;99.90;;;;;;5071722;28;19916;-79
2022/04/11 08:41:26;;;;;;;;;;;31.60;99.90;;;;;;5068946;28;19920;-80
2022/04/11 08:43:52;;;;;;;;;;;31.90;99.90;;;;;;5066564;28;19951;-80
2022/04/11 08:46:19;;;;;;;;;;;31.80;99.90;;;;;;5065971;28;19927;-80
2022/04/11 08:48:44;;;;;;;;;;;31.60;99.90;;;;;;5066514;28;19928;-80
2022/04/11 08:51:10;;;;;;;;;;;31.20;99.90;;;;;;5050810;28;20341;-80
2022/04/11 08:53:36;;;;;;;;;;;29.70;99.90;;;;;;5054844;28;20010;-80
2022/04/11 08:56:01;;;;;;;;;;;30.80;99.90;;;;;;5071430;28;19913;-79
2022/04/11 08:58:27;;;;;;;;;;;31.70;99.90;;;;;;5048406;28;19952;-80
2022/04/11 09:00:52;;;;;;;;;;;31.80;99.90;;;;;;5049342;28;20465;-79
2022/04/11 09:03:18;;;;;;;;;;;30.20;99.90;;;;;;5049955;28;19913;-79
2022/04/11 09:05:43;;;;;;;;;;;31.20;99.90;;;;;;5070289;28;19983;-80
2022/04/11 09:08:08;;;;;;;;;;;30.20;99.90;;;;;;5050056;28;19920;-79
2022/04/11 09:10:38;;;;;;;;;;;30.80;99.90;;;;;;5047964;28;19916;-80
2022/04/11 09:13:07;;;;;;;;;;;31.50;99.90;;;;;;5064593;28;19912;-80
2022/04/11 09:15:41;;;;;;;;;;;30.00;99.90;;;;;;5054242;28;20380;-80
2022/04/11 09:18:06;;;;;;;;;;;30.10;99.90;;;;;;5053232;28;20438;-81
2022/04/11 09:20:32;;;;;;;;;;;28.80;99.90;;;;;;5068256;28;19913;-81
2022/04/11 09:22:58;;;;;;;;;;;28.60;99.90;;;;;;5043910;28;19958;-80
2022/04/11 09:25:24;;;;;;;;;;;29.20;99.90;;;;;;5070143;28;19917;-81
2022/04/11 09:28:20;;;;;;;;;;;29.70;99.90;;;;;;5053645;28;19935;-80
2022/04/11 09:30:46;;;;;;;;;;;29.60;99.90;;;;;;5050778;28;20000;-80
2022/04/11 09:33:11;;;;;;;;;;;29.20;99.90;;;;;;5068619;28;19952;-81
2022/04/11 09:35:38;;;;;;;;;;;30.40;99.90;;;;;;5065332;28;19913;-81
2022/04/11 09:38:33;;;;;;;;;;;29.50;99.90;;;;;;5066892;28;19912;-82
2022/04/11 09:41:01;;;;;;;;;;;29.50;99.90;;;;;;5049705;28;19954;-80
2022/04/11 09:43:28;;;;;;;;;;;29.20;99.90;;;;;;5065961;28;19916;-80
2022/04/11 09:45:53;;;;;;;;;;;29.30;99.90;;;;;;5074050;28;19912;-80
2022/04/11 09:48:26;;;;;;;;;;;29.70;99.90;;;;;;5066775;28;20013;-80
2022/04/11 09:50:52;;;;;;;;;;;28.70;99.90;;;;;;5050598;28;19920;-81
2022/04/11 09:53:22;;;;;;;;;;;30.20;99.90;;;;;;5051130;28;20410;-80
2022/04/11 09:55:52;;;;;;;;;;;29.70;99.90;;;;;;5063585;28;19912;-81
2022/04/11 09:58:19;;;;;;;;;;;28.20;99.90;;;;;;5066794;28;19918;-81
2022/04/11 10:00:44;;;;;;;;;;;29.60;99.90;;;;;;5075207;28;19919;-81
2022/04/11 10:03:10;;;;;;;;;;;29.50;99.90;;;;;;5077600;28;19913;-81
2022/04/11 10:05:37;;;;;;;;;;;28.30;99.90;;;;;;5068246;28;19992;-81
2022/04/11 10:08:03;;;;;;;;;;;29.00;99.90;;;;;;5054805;28;19927;-81
2022/04/11 10:10:29;;;;;;;;;;;28.90;99.90;;;;;;5071188;28;19924;-81
2022/04/11 10:12:56;;;;;;;;;;;28.40;99.90;;;;;;5066282;28;19912;-81
2022/04/11 10:15:22;;;;;;;;;;;26.40;99.90;;;;;;5044659;28;19924;-82
2022/04/11 10:17:51;;;;;;;;;;;26.20;99.90;;;;;;5052655;28;19912;-82
2022/04/11 10:20:30;;;;;;;;;;;27.60;99.90;;;;;;5068172;28;19913;-80
2022/04/11 10:23:18;;;;;;;;;;;28.00;99.90;;;;;;5071129;28;20284;-81
2022/04/11 10:25:45;;;;;;;;;;;27.80;99.90;;;;;;5074642;28;19924;-81
2022/04/11 10:28:15;;;;;;;;;;;27.90;99.90;;;;;;5057828;28;21464;-82
2022/04/11 10:30:40;;;;;;;;;;;28.00;99.90;;;;;;5053084;28;19913;-81
2022/04/11 10:33:06;;;;;;;;;;;27.40;99.90;;;;;;5070165;28;19941;-81
2022/04/11 10:35:33;;;;;;;;;;;28.00;99.90;;;;;;5074247;28;20350;-81
2022/04/11 10:37:58;;;;;;;;;;;26.90;99.90;;;;;;5074009;28;19959;-81
2022/04/11 10:40:24;;;;;;;;;;;26.70;99.90;;;;;;5057177;28;19920;-81
2022/04/11 10:43:07;;;;;;;;;;;27.20;99.90;;;;;;5056031;28;19923;-80
2022/04/11 10:45:39;;;;;;;;;;;27.70;99.90;;;;;;5069659;28;20407;-81
2022/04/11 10:48:05;;;;;;;;;;;27.20;99.90;;;;;;5069587;28;19920;-81
2022/04/11 10:50:38;;;;;;;;;;;27.30;99.90;;;;;;5066112;28;19913;-81
2022/04/11 10:53:24;;;;;;;;;;;27.20;99.90;;;;;;5070612;28;19913;-80
2022/04/11 10:56:06;;;;;;;;;;;25.90;99.90;;;;;;5069171;28;19924;-81
2022/04/11 10:58:40;;;;;;;;;;;25.40;99.90;;;;;;5063346;28;19913;-79
2022/04/11 11:01:06;;;;;;;;;;;26.50;99.90;;;;;;5068386;28;19912;-81
2022/04/11 11:03:31;;;;;;;;;;;26.50;99.90;;;;;;5048757;28;19935;-81
2022/04/11 11:06:13;;;;;;;;;;;26.70;99.90;;;;;;5053735;28;19923;-81
2022/04/11 11:08:39;;;;;;;;;;;25.70;99.90;;;;;;5064783;28;19924;-81
2022/04/11 11:11:24;;;;;;;;;;;25.50;99.90;;;;;;5055913;28;19961;-81
2022/04/11 11:13:50;;;;;;;;;;;26.30;99.90;;;;;;5052101;28;19966;-82
2022/04/11 11:16:17;;;;;;;;;;;26.20;99.90;;;;;;5066269;28;19934;-83
2022/04/11 11:18:48;;;;;;;;;;;26.60;99.90;;;;;;5063970;28;19913;-80
2022/04/11 11:21:14;;;;;;;;;;;26.30;99.90;;;;;;5066155;28;20426;-81
2022/04/11 11:23:40;;;;;;;;;;;26.00;99.90;;;;;;5070845;28;19976;-82
2022/04/11 11:26:10;;;;;;;;;;;26.10;99.90;;;;;;5073511;28;19916;-82
2022/04/11 11:28:36;;;;;;;;;;;25.60;99.90;;;;;;5058367;28;20073;-82
2022/04/11 11:31:02;;;;;;;;;;;24.70;99.90;;;;;;5074188;28;20675;-81
2022/04/11 11:33:28;;;;;;;;;;;24.00;99.90;;;;;;5066822;28;19916;-81
2022/04/11 11:35:54;;;;;;;;;;;23.50;99.90;;;;;;5069038;28;19919;-81
2022/04/11 11:38:24;;;;;;;;;;;24.30;99.90;;;;;;5052630;28;19919;-80
2022/04/11 11:40:51;;;;;;;;;;;24.20;99.90;;;;;;5071632;28;19916;-81
2022/04/11 11:43:17;;;;;;;;;;;24.00;99.90;;;;;;5056791;28;19954;-81
2022/04/11 11:45:42;;;;;;;;;;;23.30;99.90;;;;;;5075813;28;19916;-81
2022/04/11 11:48:17;;;;;;;;;;;23.60;99.90;;;;;;5056062;28;19996;-81
2022/04/11 11:50:44;;;;;;;;;;;22.90;99.90;;;;;;5076367;28;20391;-80
2022/04/11 11:53:12;;;;;;;;;;;23.90;99.90;;;;;;5054345;28;19958;-81
2022/04/11 11:55:49;;;;;;;;;;;23.80;99.90;;;;;;5052489;28;20393;-80
2022/04/11 11:58:14;;;;;;;;;;;23.80;99.90;;;;;;5067784;28;19913;-80
2022/04/11 12:00:44;;;;;;;;;;;23.20;99.90;;;;;;5072044;28;19922;-80
2022/04/11 12:06:11;;;;;;;;;;;23.50;99.90;;;;;;4967187;28;20453;-79
2022/04/11 12:08:38;;;;;;;;;;;23.40;99.90;;;;;;5062752;28;19913;-80
2022/04/11 12:11:04;;;;;;;;;;;23.80;99.90;;;;;;5074119;28;19924;-80
2022/04/11 12:13:31;;;;;;;;;;;23.60;99.90;;;;;;5052740;28;19916;-79
2022/04/11 12:16:07;;;;;;;;;;;23.30;99.90;;;;;;5068691;28;19943;-79
2022/04/11 12:18:48;;;;;;;;;;;23.00;99.90;;;;;;5063710;28;19919;-79
2022/04/11 12:21:13;;;;;;;;;;;23.00;99.90;;;;;;5070179;28;19939;-80
2022/04/11 12:23:47;;;;;;;;;;;23.00;99.90;;;;;;5053166;28;20339;-80
2022/04/11 12:26:12;;;;;;;;;;;23.70;99.90;;;;;;5056718;28;19921;-79
2022/04/11 12:28:38;;;;;;;;;;;22.90;99.90;;;;;;5068888;28;21446;-80
2022/04/11 12:31:03;;;;;;;;;;;22.30;99.90;;;;;;5060590;28;19916;-80
2022/04/11 12:33:35;;;;;;;;;;;22.60;99.90;;;;;;5049674;28;19926;-81
2022/04/11 12:36:14;;;;;;;;;;;22.20;99.90;;;;;;5054268;28;19913;-79
2022/04/11 12:38:42;;;;;;;;;;;21.50;99.90;;;;;;5066789;28;19936;-79
2022/04/11 12:41:22;;;;;;;;;;;21.90;99.90;;;;;;5069394;28;19932;-79
2022/04/11 12:44:03;;;;;;;;;;;21.50;99.90;;;;;;5052601;28;19920;-80
2022/04/11 12:46:29;;;;;;;;;;;21.20;99.90;;;;;;5063804;28;19943;-79
2022/04/11 12:48:56;;;;;;;;;;;21.50;99.90;;;;;;5065158;28;19920;-79
2022/04/11 12:51:22;;;;;;;;;;;22.40;99.90;;;;;;5064057;28;19921;-80
2022/04/11 12:53:47;;;;;;;;;;;22.40;99.90;;;;;;5074677;28;19917;-79
2022/04/11 12:56:13;;;;;;;;;;;22.20;99.90;;;;;;5070007;28;20441;-80
2022/04/11 12:58:38;;;;;;;;;;;22.00;99.90;;;;;;5053954;28;19916;-80
2022/04/11 13:01:04;;;;;;;;;;;22.10;99.90;;;;;;5057227;28;19967;-79
2022/04/11 13:03:30;;;;;;;;;;;22.60;99.90;;;;;;5054552;28;19913;-79
2022/04/11 13:05:57;;;;;;;;;;;22.10;99.90;;;;;;5055022;28;19956;-81
2022/04/11 13:08:26;;;;;;;;;;;22.10;99.90;;;;;;5048618;28;19936;-81
2022/04/11 13:10:52;;;;;;;;;;;21.80;99.90;;;;;;5066634;28;19935;-81
2022/04/11 13:13:17;;;;;;;;;;;21.60;99.90;;;;;;5052756;28;20007;-81
2022/04/11 13:18:26;;;;;;;;;;;20.80;99.90;;;;;;5065463;28;19935;-80
2022/04/11 13:20:52;;;;;;;;;;;21.10;99.90;;;;;;5073150;28;19912;-81
2022/04/11 13:23:18;;;;;;;;;;;21.20;99.90;;;;;;5070223;28;19981;-81
2022/04/11 13:25:43;;;;;;;;;;;20.70;99.90;;;;;;5070023;28;20376;-79
2022/04/11 13:28:12;;;;;;;;;;;20.40;99.90;;;;;;5046258;28;19917;-79
2022/04/11 13:30:37;;;;;;;;;;;20.40;99.90;;;;;;5063780;28;19934;-79
2022/04/11 13:33:02;;;;;;;;;;;20.60;99.90;;;;;;5067946;28;19917;-79
2022/04/11 13:35:28;;;;;;;;;;;20.70;99.90;;;;;;5053202;28;19951;-78
2022/04/11 13:37:53;;;;;;;;;;;21.30;99.90;;;;;;5060922;28;19947;-79
2022/04/11 13:40:19;;;;;;;;;;;20.70;99.90;;;;;;5068359;28;20046;-78
2022/04/11 13:42:44;;;;;;;;;;;20.90;99.90;;;;;;5066267;28;19927;-78
2022/04/11 13:45:10;;;;;;;;;;;20.80;99.90;;;;;;5052937;28;20330;-79
2022/04/11 13:47:35;;;;;;;;;;;20.90;99.90;;;;;;5069180;28;19995;-78
2022/04/11 13:50:01;;;;;;;;;;;20.30;99.90;;;;;;5066265;28;20296;-81
2022/04/11 13:52:26;;;;;;;;;;;20.40;99.90;;;;;;5070008;28;19912;-79
2022/04/11 13:54:52;;;;;;;;;;;20.60;99.90;;;;;;5064676;28;19919;-79
2022/04/11 13:57:18;;;;;;;;;;;20.30;99.90;;;;;;5066444;28;19995;-79
2022/04/11 13:59:43;;;;;;;;;;;20.20;99.90;;;;;;5067278;28;19909;-79
2022/04/11 14:02:12;;;;;;;;;;;20.20;99.90;;;;;;5063943;28;19958;-79
2022/04/11 14:04:38;;;;;;;;;;;20.30;99.90;;;;;;5047205;28;19920;-79
2022/04/11 14:07:04;;;;;;;;;;;20.20;99.90;;;;;;5051436;28;20441;-79
2022/04/11 14:09:29;;;;;;;;;;;20.20;99.90;;;;;;5063579;28;19995;-78
2022/04/11 14:11:56;;;;;;;;;;;20.00;99.90;;;;;;5064309;28;19952;-79
2022/04/11 14:14:22;;;;;;;;;;;19.60;99.90;;;;;;5061431;28;19917;-78
2022/04/11 14:16:48;;;;;;;;;;;19.50;99.90;;;;;;5052180;28;20025;-79
2022/04/11 14:19:13;;;;;;;;;;;19.40;99.90;;;;;;5054989;28;20376;-78
2022/04/11 14:21:39;;;;;;;;;;;19.50;99.90;;;;;;5068242;28;19916;-79
2022/04/11 14:24:05;;;;;;;;;;;20.00;99.90;;;;;;5069864;28;19917;-79
2022/04/11 14:26:31;;;;;;;;;;;20.10;99.90;;;;;;5068144;28;20580;-79